Time;durP1;ratioP1;P1;durP2;ratioP2;P2;SDS_P1;SDS_P2;PMS_P1;PMS_P2;Temp;Humidity;BMP_temperature;BMP_pressure;BME280_temperature;BME280_humidity;BME280_pressure;Samples;Min_cycle;Max_cycle;Signal;HPM_P1;HPM_P2
2021/07/15 00:01:50;;;;;;;;;;;;;;;13.69;100.00;98775.66;4977860;28;20376;-61
2021/07/15 00:04:16;;;;;;;;;;;;;;;13.71;100.00;98776.19;4978141;28;19937;-61
2021/07/15 00:06:41;;;;;;;;;;;;;;;13.71;100.00;98781.59;4977764;28;20075;-62
2021/07/15 00:09:06;;;;;;;;;;;;;;;13.71;100.00;98776.19;4978223;28;19914;-62
2021/07/15 00:11:35;;;;;;;;;;;;;;;13.78;100.00;98779.41;4977710;28;19929;-61
2021/07/15 00:14:00;;;;;;;;;;;;;;;13.74;100.00;98781.03;4978184;28;20305;-61
2021/07/15 00:16:26;;;;;;;;;;;;;;;13.73;100.00;98779.44;4977628;28;19918;-63
2021/07/15 00:18:51;;;;;;;;;;;;;;;13.72;100.00;98788.56;4977812;28;20008;-62
2021/07/15 00:21:18;;;;;;;;;;;;;;;13.62;100.00;98791.28;4977586;28;19965;-61
2021/07/15 00:23:43;;;;;;;;;;;;;;;13.58;100.00;98794.53;4977983;28;19921;-62
2021/07/15 00:26:09;;;;;;;;;;;;;;;13.57;100.00;98805.56;4977379;28;19918;-62
2021/07/15 00:28:35;;;;;;;;;;;;;;;13.53;100.00;98816.09;4977893;28;19918;-62
2021/07/15 00:31:00;;;;;;;;;;;;;;;13.55;100.00;98811.25;4977401;28;19918;-61
2021/07/15 00:33:28;;;;;;;;;;;;;;;13.45;100.00;98822.00;4977630;28;19914;-61
2021/07/15 00:35:53;;;;;;;;;;;;;;;13.42;100.00;98822.53;4977340;28;20257;-62
2021/07/15 00:38:18;;;;;;;;;;;;;;;13.43;100.00;98829.56;4977706;28;19914;-62
2021/07/15 00:40:43;;;;;;;;;;;;;;;13.44;100.00;98830.34;4977240;28;19925;-61
2021/07/15 00:43:09;;;;;;;;;;;;;;;13.50;100.00;98834.66;4977370;28;19961;-61
2021/07/15 00:45:34;;;;;;;;;;;;;;;13.52;100.00;98837.88;4977137;28;20053;-61
2021/07/15 00:47:59;;;;;;;;;;;;;;;13.57;100.00;98835.97;4977230;28;20272;-61
2021/07/15 00:50:24;;;;;;;;;;;;;;;13.59;100.00;98838.41;4977318;28;19972;-61
2021/07/15 00:52:50;;;;;;;;;;;;;;;13.50;100.00;98834.66;4976662;28;20042;-61
2021/07/15 00:55:21;;;;;;;;;;;;;;;13.45;100.00;98837.34;4975193;28;20257;-62
2021/07/15 00:57:46;;;;;;;;;;;;;;;13.49;100.00;98833.03;4977304;28;19914;-62
2021/07/15 01:00:12;;;;;;;;;;;;;;;13.61;100.00;98841.66;4976884;28;19942;-61
2021/07/15 01:02:37;;;;;;;;;;;;;;;13.64;100.00;98840.28;4976938;28;20368;-61
2021/07/15 01:05:05;;;;;;;;;;;;;;;13.66;100.00;98843.53;4976702;28;19913;-62
2021/07/15 01:07:30;;;;;;;;;;;;;;;13.69;100.00;98845.66;4977269;28;19906;-62
2021/07/15 01:09:55;;;;;;;;;;;;;;;13.67;100.00;98851.31;4977010;28;19941;-62
2021/07/15 01:12:43;;;;;;;;;;;;;;;13.70;100.00;98849.97;4977812;28;19946;-62
2021/07/15 01:15:14;;;;;;;;;;;;;;;13.72;100.00;98848.63;4976368;28;19909;-62
2021/07/15 01:17:46;;;;;;;;;;;;;;;13.70;100.00;98849.97;4977055;28;19910;-62
2021/07/15 01:20:20;;;;;;;;;;;;;;;13.77;100.00;98845.13;4976639;28;20005;-62
2021/07/15 01:23:01;;;;;;;;;;;;;;;13.79;100.00;98848.34;4976950;28;19964;-61
2021/07/15 01:25:32;;;;;;;;;;;;;;;13.81;100.00;98843.50;4976408;28;19973;-61
2021/07/15 01:27:57;;;;;;;;;;;;;;;13.80;100.00;98860.72;4976600;28;20399;-61
2021/07/15 01:30:23;;;;;;;;;;;;;;;13.80;100.00;98861.56;4976451;28;19918;-61
2021/07/15 01:32:48;;;;;;;;;;;;;;;13.82;100.00;98853.19;4975351;28;20283;-61
2021/07/15 01:35:13;;;;;;;;;;;;;;;13.87;100.00;98845.09;4976311;28;20372;-61
2021/07/15 01:37:39;;;;;;;;;;;;;;;13.82;100.00;98847.78;4975372;28;19914;-62
2021/07/15 01:40:04;;;;;;;;;;;;;;;13.88;100.00;98845.88;4974852;28;19917;-61
2021/07/15 01:42:29;;;;;;;;;;;;;;;13.95;100.00;98841.03;4975159;28;20258;-61
2021/07/15 01:44:55;;;;;;;;;;;;;;;14.02;100.00;98839.66;4976343;28;19984;-61
2021/07/15 01:47:20;;;;;;;;;;;;;;;14.05;100.00;98845.56;4974591;28;19965;-61
2021/07/15 01:49:46;;;;;;;;;;;;;;;14.06;100.00;98848.00;4975026;28;19914;-61
2021/07/15 01:52:11;;;;;;;;;;;;;;;13.97;100.00;98852.34;4974681;28;19925;-63
2021/07/15 01:54:36;;;;;;;;;;;;;;;13.98;100.00;98846.69;4974874;28;19916;-62
2021/07/15 01:57:02;;;;;;;;;;;;;;;13.91;100.00;98856.13;4974618;28;19918;-62
2021/07/15 01:59:27;;;;;;;;;;;;;;;13.93;100.00;98844.00;4974792;28;19910;-62
2021/07/15 02:01:53;;;;;;;;;;;;;;;13.98;100.00;98845.88;4974412;28;20009;-62
2021/07/15 02:04:18;;;;;;;;;;;;;;;14.02;100.00;98836.16;4975564;28;20017;-62
2021/07/15 02:06:46;;;;;;;;;;;;;;;14.01;100.00;98845.34;4975915;28;19918;-62
2021/07/15 02:09:11;;;;;;;;;;;;;;;14.03;100.00;98846.66;4974733;28;20289;-62
2021/07/15 02:11:36;;;;;;;;;;;;;;;13.98;100.00;98845.88;4975578;28;19918;-62
2021/07/15 02:14:09;;;;;;;;;;;;;;;13.99;100.00;98842.09;4974844;28;19936;-62
2021/07/15 02:16:35;;;;;;;;;;;;;;;14.02;100.00;98841.53;4975684;28;19922;-62
2021/07/15 02:19:00;;;;;;;;;;;;;;;14.05;100.00;98845.56;4975770;28;19992;-62
2021/07/15 02:21:26;;;;;;;;;;;;;;;14.07;100.00;98843.41;4975316;28;19953;-62
2021/07/15 02:23:51;;;;;;;;;;;;;;;14.09;100.00;98831.28;4974453;28;19918;-62
2021/07/15 02:26:17;;;;;;;;;;;;;;;14.08;100.00;98826.16;4974087;28;19968;-62
2021/07/15 02:28:42;;;;;;;;;;;;;;;14.11;100.00;98828.31;4975703;28;20360;-62
2021/07/15 02:31:14;;;;;;;;;;;;;;;14.05;100.00;98830.22;4973984;28;19924;-62
2021/07/15 02:33:41;;;;;;;;;;;;;;;14.00;100.00;98822.97;4975551;28;19914;-62
2021/07/15 02:36:07;;;;;;;;;;;;;;;14.05;100.00;98829.41;4973810;28;19918;-62
2021/07/15 02:38:32;;;;;;;;;;;;;;;14.10;100.00;98838.28;4974041;28;19929;-62
2021/07/15 02:40:57;;;;;;;;;;;;;;;14.12;100.00;98835.31;4974876;28;19946;-62
2021/07/15 02:43:22;;;;;;;;;;;;;;;14.14;100.00;98833.16;4975756;28;19914;-62
2021/07/15 02:45:48;;;;;;;;;;;;;;;14.16;100.00;98825.59;4975104;28;20376;-62
2021/07/15 02:48:16;;;;;;;;;;;;;;;14.14;100.00;98831.25;4973970;28;19980;-62
2021/07/15 02:50:42;;;;;;;;;;;;;;;14.11;100.00;98817.53;4974753;28;20008;-62
2021/07/15 02:53:07;;;;;;;;;;;;;;;14.11;100.00;98817.53;4975121;28;20351;-62
2021/07/15 02:55:32;;;;;;;;;;;;;;;14.02;100.00;98826.19;4974729;28;19925;-62
2021/07/15 02:58:12;;;;;;;;;;;;;;;14.01;100.00;98835.34;4975077;28;19914;-62
2021/07/15 03:00:40;;;;;;;;;;;;;;;14.01;100.00;98834.56;4973513;28;19966;-62
2021/07/15 03:03:06;;;;;;;;;;;;;;;14.02;100.00;98831.56;4974973;28;19925;-62
2021/07/15 03:05:36;;;;;;;;;;;;;;;14.03;100.00;98838.59;4974496;28;19922;-62
2021/07/15 03:08:08;;;;;;;;;;;;;;;13.98;100.00;98844.00;4973620;28;19922;-62
2021/07/15 03:10:34;;;;;;;;;;;;;;;13.98;100.00;98841.28;4974462;28;19964;-62
2021/07/15 03:12:59;;;;;;;;;;;;;;;14.03;100.00;98843.97;4974792;28;19945;-62
2021/07/15 03:15:25;;;;;;;;;;;;;;;14.11;100.00;98839.09;4976817;28;19945;-61
2021/07/15 03:17:50;;;;;;;;;;;;;;;14.14;100.00;98844.75;4974077;28;19910;-62
2021/07/15 03:20:17;;;;;;;;;;;;;;;14.14;100.00;98852.03;4973175;28;19957;-62
2021/07/15 03:22:43;;;;;;;;;;;;;;;14.12;100.00;98852.28;4973697;28;19923;-62
2021/07/15 03:25:12;;;;;;;;;;;;;;;14.16;100.00;98857.94;4973028;28;20365;-62
2021/07/15 03:27:38;;;;;;;;;;;;;;;14.20;100.00;98854.44;4973599;28;20382;-62
2021/07/15 03:30:04;;;;;;;;;;;;;;;14.24;100.00;98855.47;4973082;28;19914;-62
2021/07/15 03:32:30;;;;;;;;;;;;;;;14.28;100.00;98855.75;4973397;28;19914;-62
2021/07/15 03:34:55;;;;;;;;;;;;;;;14.30;100.00;98861.66;4974836;28;20004;-62
2021/07/15 03:37:20;;;;;;;;;;;;;;;14.33;100.00;98873.81;4972985;28;20311;-62
2021/07/15 03:39:46;;;;;;;;;;;;;;;14.33;100.00;98879.19;4973244;28;19914;-62
2021/07/15 03:42:12;;;;;;;;;;;;;;;14.35;100.00;98883.22;4974097;28;19925;-62
2021/07/15 03:44:38;;;;;;;;;;;;;;;14.37;100.00;98886.44;4974532;28;20372;-62
2021/07/15 03:47:03;;;;;;;;;;;;;;;14.44;100.00;98895.03;4972667;28;19929;-62
2021/07/15 03:49:29;;;;;;;;;;;;;;;14.42;100.00;98893.69;4973251;28;19914;-62
2021/07/15 03:51:55;;;;;;;;;;;;;;;14.44;100.00;98896.94;4974048;28;19930;-62
2021/07/15 03:54:20;;;;;;;;;;;;;;;14.44;100.00;98907.72;4973199;28;19996;-62
2021/07/15 03:56:45;;;;;;;;;;;;;;;14.44;100.00;98907.72;4974113;28;19918;-62
2021/07/15 03:59:11;;;;;;;;;;;;;;;14.42;100.00;98924.16;4973285;28;19914;-62
2021/07/15 04:01:36;;;;;;;;;;;;;;;14.44;100.00;98913.91;4973877;28;19918;-62
2021/07/15 04:04:05;;;;;;;;;;;;;;;14.46;100.00;98921.72;4973203;28;19918;-62
2021/07/15 04:06:31;;;;;;;;;;;;;;;14.49;100.00;98925.75;4973033;28;19924;-62
2021/07/15 04:08:57;;;;;;;;;;;;;;;14.45;100.00;98930.88;4973299;28;20204;-62
2021/07/15 04:11:23;;;;;;;;;;;;;;;14.30;100.00;98928.25;4972728;28;19925;-62
2021/07/15 04:13:49;;;;;;;;;;;;;;;14.25;100.00;98937.16;4974435;28;19929;-62
2021/07/15 04:16:33;;;;;;;;;;;;;;;14.24;100.00;98946.31;4973802;28;19922;-64
2021/07/15 04:18:59;;;;;;;;;;;;;;;14.29;100.00;98943.63;4974514;28;19961;-62
2021/07/15 04:21:24;;;;;;;;;;;;;;;14.36;100.00;98940.66;4972624;28;19917;-62
2021/07/15 04:23:54;;;;;;;;;;;;;;;14.40;100.00;98942.53;4974118;28;19914;-62
2021/07/15 04:26:19;;;;;;;;;;;;;;;14.49;100.00;98941.94;4972693;28;20283;-62
2021/07/15 04:28:44;;;;;;;;;;;;;;;14.54;100.00;98944.66;4976519;28;20012;-62
2021/07/15 04:31:10;;;;;;;;;;;;;;;14.61;100.00;98945.16;4976235;28;19937;-62
2021/07/15 04:33:35;;;;;;;;;;;;;;;14.64;100.00;98950.00;4977836;28;19984;-62
2021/07/15 04:36:00;;;;;;;;;;;;;;;14.69;100.00;98955.38;4977208;28;19965;-62
2021/07/15 04:38:25;;;;;;;;;;;;;;;14.78;100.00;98951.03;4976472;28;19917;-62
2021/07/15 04:40:51;;;;;;;;;;;;;;;14.88;99.92;98950.97;4975924;28;20376;-62
2021/07/15 04:43:16;;;;;;;;;;;;;;;14.97;99.31;98943.09;4977474;28;19918;-62
2021/07/15 04:45:43;;;;;;;;;;;;;;;15.05;98.79;98936.31;4975363;28;20444;-63
2021/07/15 04:48:09;;;;;;;;;;;;;;;15.08;98.27;98931.19;4977263;28;19918;-63
2021/07/15 04:50:34;;;;;;;;;;;;;;;14.89;98.00;98941.78;4975790;28;19922;-62
2021/07/15 04:53:03;;;;;;;;;;;;;;;15.12;98.01;98936.81;4977376;28;19917;-62
2021/07/15 04:55:29;;;;;;;;;;;;;;;15.21;97.51;98937.84;4976957;28;19940;-62
2021/07/15 04:57:54;;;;;;;;;;;;;;;15.49;97.36;98939.00;4977342;28;20384;-63
2021/07/15 05:00:20;;;;;;;;;;;;;;;15.57;96.70;98951.09;4977216;28;21072;-62
2021/07/15 05:02:45;;;;;;;;;;;;;;;15.44;96.61;98957.94;4977247;28;20016;-62
2021/07/15 05:05:11;;;;;;;;;;;;;;;15.40;97.17;98958.78;4975542;28;19920;-62
2021/07/15 05:07:37;;;;;;;;;;;;;;;15.34;97.40;98958.00;4975836;28;19914;-62
2021/07/15 05:10:08;;;;;;;;;;;;;;;15.34;97.34;98957.22;4976768;28;20411;-62
2021/07/15 05:12:34;;;;;;;;;;;;;;;15.38;97.11;98956.38;4977038;28;19953;-63
2021/07/15 05:15:03;;;;;;;;;;;;;;;15.35;97.08;98953.41;4975651;28;19949;-62
2021/07/15 05:17:30;;;;;;;;;;;;;;;15.47;96.92;98968.16;4976626;28;19973;-62
2021/07/15 05:19:56;;;;;;;;;;;;;;;15.47;96.72;98956.56;4977034;28;19914;-62
2021/07/15 05:22:21;;;;;;;;;;;;;;;15.66;96.32;98952.09;4976384;28;20364;-62
2021/07/15 05:24:46;;;;;;;;;;;;;;;15.73;95.63;98952.63;4976806;28;19914;-62
2021/07/15 05:27:11;;;;;;;;;;;;;;;15.90;94.56;98948.69;4978573;28;19914;-63
2021/07/15 05:29:37;;;;;;;;;;;;;;;16.06;93.70;98952.88;4976947;28;19921;-62
2021/07/15 05:32:02;;;;;;;;;;;;;;;16.30;91.89;98946.66;4976323;28;20270;-62
2021/07/15 05:34:27;;;;;;;;;;;;;;;16.75;90.25;98948.06;4976717;28;19969;-63
2021/07/15 05:36:53;;;;;;;;;;;;;;;17.10;88.28;98953.31;4976205;28;19919;-62
2021/07/15 05:39:18;;;;;;;;;;;;;;;17.57;86.35;98948.81;4974531;28;19914;-63
2021/07/15 05:41:43;;;;;;;;;;;;;;;18.08;84.94;98948.00;4975946;28;19918;-62
2021/07/15 05:44:09;;;;;;;;;;;;;;;18.44;83.37;98947.34;4976365;28;19914;-62
2021/07/15 05:46:34;;;;;;;;;;;;;;;18.93;80.85;98945.84;4975819;28;19914;-62
2021/07/15 05:48:59;;;;;;;;;;;;;;;19.44;78.48;98943.88;4976450;28;19917;-62
2021/07/15 05:51:24;;;;;;;;;;;;;;;20.07;73.22;98942.91;4975963;28;19922;-63
2021/07/15 05:53:50;;;;;;;;;;;;;;;22.33;65.25;98948.59;4976166;28;19934;-63
2021/07/15 05:56:15;;;;;;;;;;;;;;;22.52;63.49;98947.41;4975739;28;19944;-63
2021/07/15 05:58:40;;;;;;;;;;;;;;;25.36;55.25;98956.97;4974947;28;19918;-63
2021/07/15 06:01:05;;;;;;;;;;;;;;;25.66;52.43;98958.56;4975843;28;20448;-62
2021/07/15 06:03:31;;;;;;;;;;;;;;;25.46;52.36;98958.44;4976263;28;20344;-62
2021/07/15 06:05:56;;;;;;;;;;;;;;;27.83;47.81;98959.47;4975749;28;19941;-63
2021/07/15 06:08:21;;;;;;;;;;;;;;;26.07;49.63;98954.63;4975853;28;20272;-63
2021/07/15 06:10:46;;;;;;;;;;;;;;;22.36;60.06;98961.56;4975402;28;19918;-62
2021/07/15 06:13:13;;;;;;;;;;;;;;;24.15;56.01;98962.09;4975866;28;19961;-62
2021/07/15 06:15:39;;;;;;;;;;;;;;;26.09;50.28;98968.81;4975452;28;20380;-63
2021/07/15 06:18:04;;;;;;;;;;;;;;;27.54;46.60;98971.84;4976527;28;19921;-63
2021/07/15 06:20:29;;;;;;;;;;;;;;;28.11;44.25;98978.47;4975435;28;20008;-62
2021/07/15 06:22:55;;;;;;;;;;;;;;;28.12;44.46;98973.75;4975621;28;19917;-62
2021/07/15 06:25:22;;;;;;;;;;;;;;;29.92;40.62;98979.97;4975187;28;19926;-61
2021/07/15 06:27:48;;;;;;;;;;;;;;;28.44;43.26;98979.81;4975805;28;19914;-61
2021/07/15 06:30:13;;;;;;;;;;;;;;;29.07;41.84;98984.00;4975105;28;19918;-61
2021/07/15 06:32:38;;;;;;;;;;;;;;;26.33;47.33;99003.53;4975664;28;19911;-63
2021/07/15 06:35:04;;;;;;;;;;;;;;;24.16;54.26;99002.00;4975183;28;19921;-62
2021/07/15 06:37:33;;;;;;;;;;;;;;;22.74;59.25;99011.88;4975502;28;19926;-62
2021/07/15 06:39:59;;;;;;;;;;;;;;;21.03;63.66;99008.63;4975459;28;20042;-61
2021/07/15 06:42:24;;;;;;;;;;;;;;;21.25;63.23;99008.50;4974970;28;20017;-61
2021/07/15 06:44:50;;;;;;;;;;;;;;;21.17;62.47;99006.59;4975365;28;19968;-64
2021/07/15 06:47:15;;;;;;;;;;;;;;;20.47;65.98;99003.59;4974442;28;19922;-62
2021/07/15 06:49:40;;;;;;;;;;;;;;;20.29;67.64;98999.19;4975172;28;19914;-61
2021/07/15 06:52:05;;;;;;;;;;;;;;;20.17;67.66;99001.69;4974780;28;19921;-62
2021/07/15 06:54:31;;;;;;;;;;;;;;;20.85;67.64;98997.69;4973868;28;20385;-62
2021/07/15 06:56:56;;;;;;;;;;;;;;;21.02;67.51;99004.31;4974709;28;20002;-62
2021/07/15 06:59:21;;;;;;;;;;;;;;;21.59;63.65;99001.53;4975139;28;20408;-62
2021/07/15 07:01:46;;;;;;;;;;;;;;;21.76;64.33;98998.75;4974452;28;19918;-62
2021/07/15 07:04:12;;;;;;;;;;;;;;;21.28;67.17;99007.88;4974870;28;19914;-62
2021/07/15 07:06:37;;;;;;;;;;;;;;;21.25;65.32;99008.50;4974516;28;19925;-62
2021/07/15 07:09:02;;;;;;;;;;;;;;;21.43;64.81;99008.56;4974774;28;20008;-62
2021/07/15 07:11:28;;;;;;;;;;;;;;;21.46;64.91;98997.00;4974473;28;20285;-62
2021/07/15 07:13:53;;;;;;;;;;;;;;;21.29;64.14;99004.03;4974663;28;20352;-62
2021/07/15 07:16:18;;;;;;;;;;;;;;;21.11;67.16;98995.00;4974651;28;19925;-62
2021/07/15 07:18:43;;;;;;;;;;;;;;;20.77;69.36;99003.13;4974738;28;20380;-62
2021/07/15 07:21:09;;;;;;;;;;;;;;;20.34;70.35;98993.59;4974221;28;19922;-62
2021/07/15 07:23:34;;;;;;;;;;;;;;;19.94;71.92;98993.53;4974525;28;19921;-62
2021/07/15 07:25:59;;;;;;;;;;;;;;;19.71;70.79;98994.66;4974200;28;20399;-62
2021/07/15 07:28:26;;;;;;;;;;;;;;;19.35;72.15;98998.19;4974814;28;19950;-63
2021/07/15 07:30:51;;;;;;;;;;;;;;;19.26;72.96;99002.72;4974392;28;20005;-62
2021/07/15 07:33:17;;;;;;;;;;;;;;;19.26;73.35;99006.22;4974939;28;19976;-63
2021/07/15 07:35:42;;;;;;;;;;;;;;;19.26;74.40;99010.88;4976582;28;19918;-62
2021/07/15 07:38:07;;;;;;;;;;;;;;;18.93;72.11;99011.81;4974909;28;19914;-63
2021/07/15 07:40:32;;;;;;;;;;;;;;;19.02;74.15;99014.63;4974283;28;19922;-62
2021/07/15 07:42:58;;;;;;;;;;;;;;;18.53;73.21;99024.25;4974639;28;19914;-61
2021/07/15 07:45:23;;;;;;;;;;;;;;;18.45;75.71;99022.22;4974467;28;19918;-62
2021/07/15 07:47:48;;;;;;;;;;;;;;;18.26;76.42;99020.38;4974521;28;20306;-62
2021/07/15 07:50:13;;;;;;;;;;;;;;;18.50;77.73;99024.84;4974028;28;19959;-62
2021/07/15 07:52:39;;;;;;;;;;;;;;;18.73;77.30;99029.28;4974501;28;19914;-62
2021/07/15 07:55:05;;;;;;;;;;;;;;;18.69;76.04;99025.53;4973962;28;19921;-62
2021/07/15 07:57:33;;;;;;;;;;;;;;;18.40;75.90;99033.19;4974581;28;19957;-62
2021/07/15 07:59:58;;;;;;;;;;;;;;;18.45;76.78;99025.75;4974499;28;19916;-62
2021/07/15 08:02:24;;;;;;;;;;;;;;;18.54;76.37;99033.97;4974268;28;20388;-62
2021/07/15 08:04:50;;;;;;;;;;;;;;;18.22;77.83;99032.94;4978204;28;19914;-62
2021/07/15 08:07:15;;;;;;;;;;;;;;;18.61;77.97;99033.59;4977712;28;19968;-62
2021/07/15 08:09:45;;;;;;;;;;;;;;;19.02;76.88;99036.38;4978134;28;20005;-62
2021/07/15 08:12:17;;;;;;;;;;;;;;;19.03;75.47;99029.81;4977741;28;19918;-62
2021/07/15 08:14:46;;;;;;;;;;;;;;;18.48;77.90;99040.63;4978100;28;19914;-62
2021/07/15 08:17:11;;;;;;;;;;;;;;;18.22;79.98;99038.38;4977636;28;19921;-62
2021/07/15 08:19:37;;;;;;;;;;;;;;;18.78;78.07;99041.19;4977997;28;19914;-62
2021/07/15 08:22:02;;;;;;;;;;;;;;;18.94;77.03;99045.19;4977372;28;19918;-62
2021/07/15 08:24:28;;;;;;;;;;;;;;;19.23;75.33;99049.50;4978138;28;19914;-62
2021/07/15 08:26:53;;;;;;;;;;;;;;;19.27;74.85;99039.63;4977444;28;19940;-62
2021/07/15 08:29:18;;;;;;;;;;;;;;;18.93;76.18;99052.53;4977720;28;20393;-62
2021/07/15 08:31:45;;;;;;;;;;;;;;;19.26;74.15;99043.47;4977346;28;19918;-62
2021/07/15 08:34:11;;;;;;;;;;;;;;;19.05;74.26;99048.53;4977743;28;20375;-62
2021/07/15 08:36:36;;;;;;;;;;;;;;;19.02;72.84;99059.97;4977254;28;19918;-62
2021/07/15 08:39:01;;;;;;;;;;;;;;;18.82;73.85;99055.75;4977816;28;20291;-62
2021/07/15 08:41:27;;;;;;;;;;;;;;;18.87;72.54;99063.78;4977074;28;19925;-62
2021/07/15 08:43:52;;;;;;;;;;;;;;;18.49;74.27;99069.34;4977754;28;19920;-62
2021/07/15 08:46:17;;;;;;;;;;;;;;;18.92;73.00;99060.97;4977186;28;19925;-62
2021/07/15 08:48:44;;;;;;;;;;;;;;;18.68;72.90;99063.88;4976121;28;20365;-62
2021/07/15 08:51:09;;;;;;;;;;;;;;;19.06;71.64;99059.06;4976981;28;20253;-62
2021/07/15 08:53:35;;;;;;;;;;;;;;;19.40;72.26;99061.34;4977648;28;19921;-62
2021/07/15 08:58:45;;;;;;;;;;;;;;;19.33;71.07;99058.25;4977345;28;20340;-62
2021/07/15 09:01:10;;;;;;;;;;;;;;;19.40;72.90;99055.13;4976888;28;19922;-62
2021/07/15 09:03:36;;;;;;;;;;;;;;;19.99;70.10;99058.72;4976074;28;19914;-62
2021/07/15 09:06:01;;;;;;;;;;;;;;;20.17;71.15;99061.56;4975616;28;19924;-62
2021/07/15 09:08:29;;;;;;;;;;;;;;;20.33;69.56;99059.25;4977103;28;19927;-62
2021/07/15 09:10:54;;;;;;;;;;;;;;;20.61;68.13;99062.63;4975630;28;19949;-62
2021/07/15 09:13:19;;;;;;;;;;;;;;;20.72;67.87;99072.13;4976948;28;19914;-62
2021/07/15 09:15:48;;;;;;;;;;;;;;;19.83;69.27;99084.66;4975179;28;19922;-62
2021/07/15 09:18:13;;;;;;;;;;;;;;;19.54;70.51;99087.69;4976597;28;19921;-62
2021/07/15 09:20:38;;;;;;;;;;;;;;;19.13;70.40;99097.50;4976419;28;19918;-62
2021/07/15 09:23:05;;;;;;;;;;;;;;;19.16;71.08;99085.22;4976647;28;20501;-62
2021/07/15 09:25:39;;;;;;;;;;;;;;;19.66;70.93;99079.03;4974823;28;19983;-62
2021/07/15 09:28:06;;;;;;;;;;;;;;;19.06;69.77;99082.72;4976463;28;19921;-62
2021/07/15 09:30:32;;;;;;;;;;;;;;;19.71;68.63;99082.44;4978439;28;20424;-62
2021/07/15 09:32:59;;;;;;;;;;;;;;;19.69;69.65;99078.44;4976208;28;20065;-62
2021/07/15 09:35:28;;;;;;;;;;;;;;;19.57;69.60;99085.19;4975901;28;20012;-62
2021/07/15 09:37:54;;;;;;;;;;;;;;;19.75;69.44;99072.59;4976314;28;19927;-62
2021/07/15 09:40:35;;;;;;;;;;;;;;;19.91;68.05;99078.47;4974540;28;19921;-62
2021/07/15 09:43:10;;;;;;;;;;;;;;;20.58;64.47;99072.22;4976119;28;20004;-62
2021/07/15 09:45:35;;;;;;;;;;;;;;;20.54;64.29;99076.63;4975762;28;20348;-62
2021/07/15 09:48:00;;;;;;;;;;;;;;;20.27;67.34;99080.34;4975828;28;19924;-62
2021/07/15 09:50:26;;;;;;;;;;;;;;;19.53;68.87;99081.47;4974312;28;20245;-62
2021/07/15 09:52:52;;;;;;;;;;;;;;;20.78;63.22;99081.78;4975903;28;19929;-61
2021/07/15 09:55:19;;;;;;;;;;;;;;;21.45;62.97;99091.63;4975439;28;19998;-61
2021/07/15 09:57:44;;;;;;;;;;;;;;;21.58;61.95;99086.38;4975983;28;20008;-65
2021/07/15 10:00:09;;;;;;;;;;;;;;;22.56;58.23;99084.88;4975661;28;20289;-62
2021/07/15 10:02:35;;;;;;;;;;;;;;;22.12;56.69;99087.66;4974337;28;19956;-62
2021/07/15 10:05:00;;;;;;;;;;;;;;;23.36;55.68;99087.78;4974635;28;19914;-62
2021/07/15 10:07:25;;;;;;;;;;;;;;;23.46;54.73;99094.81;4973995;28;19941;-62
2021/07/15 10:10:10;;;;;;;;;;;;;;;23.97;53.65;99094.81;4975631;28;19914;-62
2021/07/15 10:12:36;;;;;;;;;;;;;;;24.81;51.55;99086.41;4975279;28;20021;-62
2021/07/15 10:15:07;;;;;;;;;;;;;;;24.39;53.33;99090.06;4975330;28;20009;-63
2021/07/15 10:17:42;;;;;;;;;;;;;;;22.96;55.86;99096.31;4975648;28;19924;-62
2021/07/15 10:20:14;;;;;;;;;;;;;;;22.49;57.79;99103.69;4975211;28;19965;-62
2021/07/15 10:22:39;;;;;;;;;;;;;;;23.14;56.33;99107.19;4975211;28;19921;-62
2021/07/15 10:25:05;;;;;;;;;;;;;;;23.08;54.21;99109.31;4974664;28;19918;-62
2021/07/15 10:27:31;;;;;;;;;;;;;;;22.96;55.24;99109.19;4975352;28;19933;-62
2021/07/15 10:29:57;;;;;;;;;;;;;;;21.75;58.29;99108.22;4975292;28;20391;-62
2021/07/15 10:32:23;;;;;;;;;;;;;;;21.72;59.94;99115.09;4973589;28;19918;-62
2021/07/15 10:34:52;;;;;;;;;;;;;;;23.19;56.56;99115.25;4975148;28;19917;-63
2021/07/15 10:37:17;;;;;;;;;;;;;;;23.61;57.13;99109.84;4973855;28;19918;-62
2021/07/15 10:39:42;;;;;;;;;;;;;;;22.53;56.79;99119.09;4975378;28;20253;-62
2021/07/15 10:42:08;;;;;;;;;;;;;;;22.77;59.42;99120.50;4973156;28;19925;-62
2021/07/15 10:44:33;;;;;;;;;;;;;;;22.74;58.49;99123.88;4974876;28;20424;-62
2021/07/15 10:46:59;;;;;;;;;;;;;;;23.22;56.21;99120.03;4974760;28;20011;-62
2021/07/15 10:49:24;;;;;;;;;;;;;;;21.64;58.22;99121.34;4974114;28;19914;-62
2021/07/15 10:51:49;;;;;;;;;;;;;;;21.75;59.88;99124.56;4974849;28;19949;-63
2021/07/15 10:54:15;;;;;;;;;;;;;;;21.76;58.48;99120.72;4974159;28;19950;-62
2021/07/15 10:56:41;;;;;;;;;;;;;;;22.55;57.70;99125.06;4974894;28;19918;-62
2021/07/15 10:59:20;;;;;;;;;;;;;;;22.36;57.85;99121.88;4975055;28;20287;-62
2021/07/15 11:01:45;;;;;;;;;;;;;;;23.46;53.90;99122.16;4974448;28;19921;-62
2021/07/15 11:04:13;;;;;;;;;;;;;;;22.80;53.49;99115.19;4975084;28;19920;-62
2021/07/15 11:06:48;;;;;;;;;;;;;;;23.86;52.70;99108.91;4974699;28;19921;-62
2021/07/15 11:09:25;;;;;;;;;;;;;;;22.80;52.56;99126.13;4974988;28;19914;-62
2021/07/15 11:11:50;;;;;;;;;;;;;;;22.37;56.01;99118.81;4974448;28;19920;-62
2021/07/15 11:14:35;;;;;;;;;;;;;;;23.70;52.87;99124.25;4974803;28;19918;-62
2021/07/15 11:17:01;;;;;;;;;;;;;;;22.96;53.06;99123.63;4974353;28;19989;-62
2021/07/15 11:19:44;;;;;;;;;;;;;;;24.69;51.72;99131.84;4974792;28;19948;-62
2021/07/15 11:22:10;;;;;;;;;;;;;;;26.06;47.12;99127.97;4974163;28;20344;-62
2021/07/15 11:24:35;;;;;;;;;;;;;;;25.86;47.45;99126.97;4973172;28;20009;-62
2021/07/15 11:27:20;;;;;;;;;;;;;;;25.89;48.54;99127.09;4973767;28;20319;-62
2021/07/15 11:29:48;;;;;;;;;;;;;;;24.63;50.51;99127.72;4974561;28;19922;-62
2021/07/15 11:32:23;;;;;;;;;;;;;;;24.43;51.39;99134.81;4974767;28;19956;-62
2021/07/15 11:34:50;;;;;;;;;;;;;;;24.00;53.46;99133.25;4975182;28;20371;-62
2021/07/15 11:37:39;;;;;;;;;;;;;;;25.00;50.77;99140.69;4973475;28;20291;-62
2021/07/15 11:40:06;;;;;;;;;;;;;;;23.07;51.54;99139.72;4974215;28;20355;-62
2021/07/15 11:42:34;;;;;;;;;;;;;;;23.48;53.05;99148.03;4974823;28;19926;-62
2021/07/15 11:45:03;;;;;;;;;;;;;;;23.71;52.13;99157.91;4974654;28;20299;-62
2021/07/15 11:47:49;;;;;;;;;;;;;;;23.54;53.00;99164.25;4974302;28;19922;-62
2021/07/15 11:50:33;;;;;;;;;;;;;;;22.88;55.00;99160.00;4973466;28;19921;-63
2021/07/15 11:53:20;;;;;;;;;;;;;;;23.44;55.08;99155.31;4973972;28;20296;-63
2021/07/15 11:55:49;;;;;;;;;;;;;;;22.86;54.68;99166.91;4973157;28;19918;-62
2021/07/15 11:58:33;;;;;;;;;;;;;;;22.32;54.69;99170.06;4973791;28;19914;-62
2021/07/15 12:01:14;;;;;;;;;;;;;;;22.99;54.00;99172.22;4974484;28;20086;-62
2021/07/15 12:03:55;;;;;;;;;;;;;;;23.05;54.64;99167.38;4974495;28;19914;-62
2021/07/15 12:06:20;;;;;;;;;;;;;;;22.90;54.99;99168.69;4974118;28;19946;-62
2021/07/15 12:08:45;;;;;;;;;;;;;;;23.54;51.59;99169.72;4974345;28;19994;-62
2021/07/15 12:11:11;;;;;;;;;;;;;;;22.89;53.92;99167.09;4972588;28;19925;-62
2021/07/15 12:13:36;;;;;;;;;;;;;;;22.14;55.80;99178.22;4974749;28;19914;-62
2021/07/15 12:16:02;;;;;;;;;;;;;;;22.44;53.92;99183.88;4972425;28;19984;-63
2021/07/15 12:18:28;;;;;;;;;;;;;;;22.34;54.21;99171.34;4957191;28;19914;-62
2021/07/15 12:20:54;;;;;;;;;;;;;;;22.72;53.10;99180.78;4973880;28;19969;-62
2021/07/15 12:23:20;;;;;;;;;;;;;;;23.66;52.22;99169.81;4974125;28;20455;-62
2021/07/15 12:25:47;;;;;;;;;;;;;;;23.82;50.05;99172.84;4973626;28;19922;-62
2021/07/15 12:28:14;;;;;;;;;;;;;;;23.70;50.96;99173.50;4974138;28;20077;-61
2021/07/15 12:30:47;;;;;;;;;;;;;;;23.51;51.50;99173.13;4972378;28;19918;-62
2021/07/15 12:33:14;;;;;;;;;;;;;;;22.49;53.27;99175.50;4973920;28;19914;-61
2021/07/15 12:35:40;;;;;;;;;;;;;;;22.95;53.94;99175.91;4973479;28;19965;-62
2021/07/15 12:38:18;;;;;;;;;;;;;;;22.27;55.06;99179.22;4973979;28;19918;-61
2021/07/15 12:40:44;;;;;;;;;;;;;;;21.76;56.72;99173.34;4973410;28;20428;-61
2021/07/15 12:43:10;;;;;;;;;;;;;;;22.45;56.90;99173.75;4972586;28;20001;-62
2021/07/15 12:45:35;;;;;;;;;;;;;;;23.45;53.98;99180.72;4973676;28;19918;-62